sensor_id;sensor_type;location;lat;lon;timestamp;P1;durP1;ratioP1;P2;durP2;ratioP2
20695;SDS011;10507;52.754;13.040;2024-02-21T00:02:23;22.73;;;8.30;;
20695;SDS011;10507;52.754;13.040;2024-02-21T00:04:49;17.42;;;7.03;;
20695;SDS011;10507;52.754;13.040;2024-02-21T00:07:16;26.40;;;7.30;;
20695;SDS011;10507;52.754;13.040;2024-02-21T00:09:44;20.80;;;7.38;;
20695;SDS011;10507;52.754;13.040;2024-02-21T00:12:11;20.13;;;7.93;;
20695;SDS011;10507;52.754;13.040;2024-02-21T00:14:39;17.07;;;7.03;;
20695;SDS011;10507;52.754;13.040;2024-02-21T00:17:05;20.85;;;6.70;;
20695;SDS011;10507;52.754;13.040;2024-02-21T00:19:33;18.50;;;6.70;;
20695;SDS011;10507;52.754;13.040;2024-02-21T00:22:00;24.47;;;6.53;;
20695;SDS011;10507;52.754;13.040;2024-02-21T00:24:26;18.42;;;6.22;;
20695;SDS011;10507;52.754;13.040;2024-02-21T00:26:54;18.50;;;6.03;;
20695;SDS011;10507;52.754;13.040;2024-02-21T00:29:21;19.23;;;6.17;;
20695;SDS011;10507;52.754;13.040;2024-02-21T00:31:48;15.73;;;6.00;;
20695;SDS011;10507;52.754;13.040;2024-02-21T00:34:15;13.88;;;5.85;;
20695;SDS011;10507;52.754;13.040;2024-02-21T00:36:42;23.70;;;6.23;;
20695;SDS011;10507;52.754;13.040;2024-02-21T00:39:09;20.50;;;6.90;;
20695;SDS011;10507;52.754;13.040;2024-02-21T00:41:35;16.50;;;4.90;;
20695;SDS011;10507;52.754;13.040;2024-02-21T00:44:03;14.40;;;5.43;;
20695;SDS011;10507;52.754;13.040;2024-02-21T00:46:31;18.43;;;5.73;;
20695;SDS011;10507;52.754;13.040;2024-02-21T00:48:58;15.20;;;6.30;;
20695;SDS011;10507;52.754;13.040;2024-02-21T00:51:24;15.53;;;5.50;;
20695;SDS011;10507;52.754;13.040;2024-02-21T00:53:51;15.90;;;5.27;;
20695;SDS011;10507;52.754;13.040;2024-02-21T00:56:17;18.33;;;5.63;;
20695;SDS011;10507;52.754;13.040;2024-02-21T00:58:44;17.73;;;6.60;;
20695;SDS011;10507;52.754;13.040;2024-02-21T01:01:12;17.00;;;6.33;;
20695;SDS011;10507;52.754;13.040;2024-02-21T01:03:39;17.63;;;5.30;;
20695;SDS011;10507;52.754;13.040;2024-02-21T01:06:06;16.43;;;4.90;;
20695;SDS011;10507;52.754;13.040;2024-02-21T01:08:32;14.90;;;5.40;;
20695;SDS011;10507;52.754;13.040;2024-02-21T01:10:59;20.77;;;5.63;;
20695;SDS011;10507;52.754;13.040;2024-02-21T01:13:26;18.80;;;5.40;;
20695;SDS011;10507;52.754;13.040;2024-02-21T01:15:52;14.43;;;5.33;;
20695;SDS011;10507;52.754;13.040;2024-02-21T01:18:21;17.53;;;5.27;;
20695;SDS011;10507;52.754;13.040;2024-02-21T01:20:47;16.07;;;5.17;;
20695;SDS011;10507;52.754;13.040;2024-02-21T01:23:14;16.40;;;4.47;;
20695;SDS011;10507;52.754;13.040;2024-02-21T01:25:40;16.37;;;5.73;;
20695;SDS011;10507;52.754;13.040;2024-02-21T01:28:07;15.27;;;5.40;;
20695;SDS011;10507;52.754;13.040;2024-02-21T01:30:34;17.67;;;4.90;;
20695;SDS011;10507;52.754;13.040;2024-02-21T01:33:01;16.63;;;5.43;;
20695;SDS011;10507;52.754;13.040;2024-02-21T01:35:29;23.33;;;6.80;;
20695;SDS011;10507;52.754;13.040;2024-02-21T01:37:55;19.50;;;5.20;;
20695;SDS011;10507;52.754;13.040;2024-02-21T01:40:22;12.87;;;4.70;;
20695;SDS011;10507;52.754;13.040;2024-02-21T01:42:49;14.57;;;5.23;;
20695;SDS011;10507;52.754;13.040;2024-02-21T01:45:15;20.63;;;5.57;;
20695;SDS011;10507;52.754;13.040;2024-02-21T01:47:42;14.87;;;4.60;;
20695;SDS011;10507;52.754;13.040;2024-02-21T01:50:09;16.13;;;5.70;;
20695;SDS011;10507;52.754;13.040;2024-02-21T01:52:38;14.43;;;5.30;;
20695;SDS011;10507;52.754;13.040;2024-02-21T01:55:05;14.33;;;5.60;;
20695;SDS011;10507;52.754;13.040;2024-02-21T01:57:33;22.23;;;5.30;;
20695;SDS011;10507;52.754;13.040;2024-02-21T02:00:00;19.23;;;5.33;;
20695;SDS011;10507;52.754;13.040;2024-02-21T02:02:27;18.10;;;5.30;;
20695;SDS011;10507;52.754;13.040;2024-02-21T02:04:54;22.60;;;5.87;;
20695;SDS011;10507;52.754;13.040;2024-02-21T02:07:22;13.77;;;5.20;;
20695;SDS011;10507;52.754;13.040;2024-02-21T02:09:50;14.50;;;6.00;;
20695;SDS011;10507;52.754;13.040;2024-02-21T02:12:17;15.57;;;5.63;;
20695;SDS011;10507;52.754;13.040;2024-02-21T02:14:44;22.53;;;6.73;;
20695;SDS011;10507;52.754;13.040;2024-02-21T02:17:10;15.73;;;5.13;;
20695;SDS011;10507;52.754;13.040;2024-02-21T02:19:37;14.63;;;5.13;;
20695;SDS011;10507;52.754;13.040;2024-02-21T02:22:06;18.93;;;6.40;;
20695;SDS011;10507;52.754;13.040;2024-02-21T02:24:37;15.30;;;6.30;;
20695;SDS011;10507;52.754;13.040;2024-02-21T02:27:04;16.90;;;5.53;;
20695;SDS011;10507;52.754;13.040;2024-02-21T02:29:31;16.00;;;6.30;;
20695;SDS011;10507;52.754;13.040;2024-02-21T02:31:58;16.87;;;6.30;;
20695;SDS011;10507;52.754;13.040;2024-02-21T02:34:25;26.10;;;7.10;;
20695;SDS011;10507;52.754;13.040;2024-02-21T02:36:52;15.50;;;6.80;;
20695;SDS011;10507;52.754;13.040;2024-02-21T02:39:19;24.57;;;7.73;;
20695;SDS011;10507;52.754;13.040;2024-02-21T02:41:47;16.77;;;6.60;;
20695;SDS011;10507;52.754;13.040;2024-02-21T02:44:14;20.67;;;7.03;;
20695;SDS011;10507;52.754;13.040;2024-02-21T02:46:41;20.03;;;7.27;;
20695;SDS011;10507;52.754;13.040;2024-02-21T02:49:08;18.77;;;6.93;;
20695;SDS011;10507;52.754;13.040;2024-02-21T02:51:35;15.13;;;6.17;;
20695;SDS011;10507;52.754;13.040;2024-02-21T02:54:02;16.10;;;6.90;;
20695;SDS011;10507;52.754;13.040;2024-02-21T02:56:28;23.20;;;7.40;;
20695;SDS011;10507;52.754;13.040;2024-02-21T02:58:56;15.97;;;7.27;;
20695;SDS011;10507;52.754;13.040;2024-02-21T03:01:23;18.00;;;7.30;;
20695;SDS011;10507;52.754;13.040;2024-02-21T03:03:50;14.07;;;6.63;;
20695;SDS011;10507;52.754;13.040;2024-02-21T03:06:16;24.97;;;7.30;;
20695;SDS011;10507;52.754;13.040;2024-02-21T03:08:43;16.47;;;6.73;;
20695;SDS011;10507;52.754;13.040;2024-02-21T03:11:09;23.47;;;7.13;;
20695;SDS011;10507;52.754;13.040;2024-02-21T03:13:37;15.87;;;7.27;;
20695;SDS011;10507;52.754;13.040;2024-02-21T03:16:05;18.30;;;6.93;;
20695;SDS011;10507;52.754;13.040;2024-02-21T03:18:32;20.47;;;7.60;;
20695;SDS011;10507;52.754;13.040;2024-02-21T03:20:59;21.90;;;8.43;;
20695;SDS011;10507;52.754;13.040;2024-02-21T03:23:25;19.00;;;7.83;;
20695;SDS011;10507;52.754;13.040;2024-02-21T03:25:52;20.40;;;7.47;;
20695;SDS011;10507;52.754;13.040;2024-02-21T03:28:19;20.33;;;7.77;;
20695;SDS011;10507;52.754;13.040;2024-02-21T03:30:45;22.57;;;8.50;;
20695;SDS011;10507;52.754;13.040;2024-02-21T03:33:13;17.97;;;8.40;;
20695;SDS011;10507;52.754;13.040;2024-02-21T03:35:40;20.03;;;8.10;;
20695;SDS011;10507;52.754;13.040;2024-02-21T03:38:07;20.17;;;8.00;;
20695;SDS011;10507;52.754;13.040;2024-02-21T03:40:33;20.90;;;8.43;;
20695;SDS011;10507;52.754;13.040;2024-02-21T03:43:00;19.63;;;9.00;;
20695;SDS011;10507;52.754;13.040;2024-02-21T03:45:27;23.47;;;8.60;;
20695;SDS011;10507;52.754;13.040;2024-02-21T03:47:53;22.13;;;9.17;;
20695;SDS011;10507;52.754;13.040;2024-02-21T03:50:21;20.37;;;9.07;;
20695;SDS011;10507;52.754;13.040;2024-02-21T03:52:47;18.50;;;7.97;;
20695;SDS011;10507;52.754;13.040;2024-02-21T03:55:14;18.30;;;8.47;;
20695;SDS011;10507;52.754;13.040;2024-02-21T03:57:39;25.00;;;9.30;;
20695;SDS011;10507;52.754;13.040;2024-02-21T04:00:06;20.77;;;9.13;;
20695;SDS011;10507;52.754;13.040;2024-02-21T04:02:37;23.53;;;8.90;;
20695;SDS011;10507;52.754;13.040;2024-02-21T04:05:03;19.23;;;8.53;;
20695;SDS011;10507;52.754;13.040;2024-02-21T04:07:32;17.93;;;8.53;;
20695;SDS011;10507;52.754;13.040;2024-02-21T04:09:59;23.70;;;8.33;;
20695;SDS011;10507;52.754;13.040;2024-02-21T04:12:25;18.47;;;8.80;;
20695;SDS011;10507;52.754;13.040;2024-02-21T04:14:52;19.80;;;9.03;;
20695;SDS011;10507;52.754;13.040;2024-02-21T04:17:19;22.27;;;8.40;;
20695;SDS011;10507;52.754;13.040;2024-02-21T04:19:45;18.97;;;8.83;;
20695;SDS011;10507;52.754;13.040;2024-02-21T04:22:12;21.70;;;8.63;;
20695;SDS011;10507;52.754;13.040;2024-02-21T04:24:40;23.70;;;10.10;;
20695;SDS011;10507;52.754;13.040;2024-02-21T04:27:07;24.90;;;9.20;;
20695;SDS011;10507;52.754;13.040;2024-02-21T04:29:33;25.37;;;9.37;;
20695;SDS011;10507;52.754;13.040;2024-02-21T04:32:01;22.57;;;9.87;;
20695;SDS011;10507;52.754;13.040;2024-02-21T04:34:28;23.77;;;9.23;;
20695;SDS011;10507;52.754;13.040;2024-02-21T04:36:54;18.93;;;8.67;;
20695;SDS011;10507;52.754;13.040;2024-02-21T04:39:21;21.40;;;8.60;;
20695;SDS011;10507;52.754;13.040;2024-02-21T04:41:49;19.73;;;7.77;;
20695;SDS011;10507;52.754;13.040;2024-02-21T04:44:16;22.03;;;8.30;;
20695;SDS011;10507;52.754;13.040;2024-02-21T04:46:42;20.53;;;9.27;;
20695;SDS011;10507;52.754;13.040;2024-02-21T04:49:09;22.57;;;9.73;;
20695;SDS011;10507;52.754;13.040;2024-02-21T04:51:36;28.07;;;9.30;;
20695;SDS011;10507;52.754;13.040;2024-02-21T04:54:02;21.37;;;9.17;;
20695;SDS011;10507;52.754;13.040;2024-02-21T04:56:29;22.63;;;9.63;;
20695;SDS011;10507;52.754;13.040;2024-02-21T04:58:57;21.67;;;9.43;;
20695;SDS011;10507;52.754;13.040;2024-02-21T05:01:24;21.97;;;8.83;;
20695;SDS011;10507;52.754;13.040;2024-02-21T05:03:51;22.20;;;9.80;;
20695;SDS011;10507;52.754;13.040;2024-02-21T05:06:17;24.63;;;9.50;;
20695;SDS011;10507;52.754;13.040;2024-02-21T05:08:44;19.87;;;8.93;;
20695;SDS011;10507;52.754;13.040;2024-02-21T05:11:11;17.33;;;8.37;;
20695;SDS011;10507;52.754;13.040;2024-02-21T05:13:37;20.17;;;8.40;;
20695;SDS011;10507;52.754;13.040;2024-02-21T05:16:06;22.90;;;8.93;;
20695;SDS011;10507;52.754;13.040;2024-02-21T05:18:32;25.17;;;9.27;;
20695;SDS011;10507;52.754;13.040;2024-02-21T05:20:59;23.53;;;9.50;;
20695;SDS011;10507;52.754;13.040;2024-02-21T05:23:27;24.97;;;9.40;;
20695;SDS011;10507;52.754;13.040;2024-02-21T05:25:54;17.27;;;7.90;;
20695;SDS011;10507;52.754;13.040;2024-02-21T05:28:20;22.70;;;8.13;;
20695;SDS011;10507;52.754;13.040;2024-02-21T05:30:47;20.40;;;8.77;;
20695;SDS011;10507;52.754;13.040;2024-02-21T05:33:15;27.10;;;10.53;;
20695;SDS011;10507;52.754;13.040;2024-02-21T05:35:46;19.73;;;8.97;;
20695;SDS011;10507;52.754;13.040;2024-02-21T05:38:13;19.27;;;9.83;;
20695;SDS011;10507;52.754;13.040;2024-02-21T05:40:39;25.80;;;9.07;;
20695;SDS011;10507;52.754;13.040;2024-02-21T05:43:06;22.30;;;8.97;;
20695;SDS011;10507;52.754;13.040;2024-02-21T05:45:33;18.63;;;9.57;;
20695;SDS011;10507;52.754;13.040;2024-02-21T05:48:00;19.10;;;9.53;;
20695;SDS011;10507;52.754;13.040;2024-02-21T05:50:29;30.27;;;13.93;;
20695;SDS011;10507;52.754;13.040;2024-02-21T05:52:55;24.97;;;9.53;;
20695;SDS011;10507;52.754;13.040;2024-02-21T05:55:26;23.10;;;9.80;;
20695;SDS011;10507;52.754;13.040;2024-02-21T05:57:53;26.70;;;10.40;;
20695;SDS011;10507;52.754;13.040;2024-02-21T06:00:21;22.43;;;9.70;;
20695;SDS011;10507;52.754;13.040;2024-02-21T06:02:47;23.10;;;9.97;;
20695;SDS011;10507;52.754;13.040;2024-02-21T06:05:14;19.77;;;9.67;;
20695;SDS011;10507;52.754;13.040;2024-02-21T06:07:43;25.37;;;9.77;;
20695;SDS011;10507;52.754;13.040;2024-02-21T06:10:09;22.90;;;10.30;;
20695;SDS011;10507;52.754;13.040;2024-02-21T06:12:36;18.70;;;10.07;;
20695;SDS011;10507;52.754;13.040;2024-02-21T06:15:03;24.70;;;9.63;;
20695;SDS011;10507;52.754;13.040;2024-02-21T06:17:30;20.30;;;9.20;;
20695;SDS011;10507;52.754;13.040;2024-02-21T06:19:56;22.10;;;9.50;;
20695;SDS011;10507;52.754;13.040;2024-02-21T06:22:23;19.30;;;10.33;;
20695;SDS011;10507;52.754;13.040;2024-02-21T06:24:51;20.07;;;9.30;;
20695;SDS011;10507;52.754;13.040;2024-02-21T06:27:19;21.57;;;9.70;;
20695;SDS011;10507;52.754;13.040;2024-02-21T06:29:46;19.87;;;9.77;;
20695;SDS011;10507;52.754;13.040;2024-02-21T06:32:12;19.77;;;9.40;;
20695;SDS011;10507;52.754;13.040;2024-02-21T06:34:39;22.33;;;9.33;;
20695;SDS011;10507;52.754;13.040;2024-02-21T06:37:05;22.20;;;9.83;;
20695;SDS011;10507;52.754;13.040;2024-02-21T06:39:32;21.70;;;10.73;;
20695;SDS011;10507;52.754;13.040;2024-02-21T06:42:00;20.90;;;9.63;;
20695;SDS011;10507;52.754;13.040;2024-02-21T06:44:27;24.83;;;10.23;;
20695;SDS011;10507;52.754;13.040;2024-02-21T06:46:53;24.37;;;10.87;;
20695;SDS011;10507;52.754;13.040;2024-02-21T06:49:20;19.70;;;9.63;;
20695;SDS011;10507;52.754;13.040;2024-02-21T06:51:46;20.27;;;10.07;;
20695;SDS011;10507;52.754;13.040;2024-02-21T06:54:13;25.10;;;10.77;;
20695;SDS011;10507;52.754;13.040;2024-02-21T06:56:40;23.63;;;9.80;;
20695;SDS011;10507;52.754;13.040;2024-02-21T06:59:08;19.43;;;9.20;;
20695;SDS011;10507;52.754;13.040;2024-02-21T07:01:35;18.77;;;10.23;;
20695;SDS011;10507;52.754;13.040;2024-02-21T07:04:02;21.80;;;10.83;;
20695;SDS011;10507;52.754;13.040;2024-02-21T07:06:28;21.93;;;10.50;;
20695;SDS011;10507;52.754;13.040;2024-02-21T07:08:56;19.37;;;9.87;;
20695;SDS011;10507;52.754;13.040;2024-02-21T07:11:23;19.67;;;10.10;;
20695;SDS011;10507;52.754;13.040;2024-02-21T07:13:49;20.07;;;10.07;;
20695;SDS011;10507;52.754;13.040;2024-02-21T07:16:17;17.70;;;10.17;;
20695;SDS011;10507;52.754;13.040;2024-02-21T07:18:44;22.47;;;10.97;;
20695;SDS011;10507;52.754;13.040;2024-02-21T07:21:10;20.37;;;9.90;;
20695;SDS011;10507;52.754;13.040;2024-02-21T07:23:40;22.30;;;9.73;;
20695;SDS011;10507;52.754;13.040;2024-02-21T07:26:06;18.77;;;9.70;;
20695;SDS011;10507;52.754;13.040;2024-02-21T07:28:33;18.63;;;9.33;;
20695;SDS011;10507;52.754;13.040;2024-02-21T07:31:00;18.80;;;9.87;;
20695;SDS011;10507;52.754;13.040;2024-02-21T07:33:28;22.33;;;10.30;;
20695;SDS011;10507;52.754;13.040;2024-02-21T07:35:55;19.33;;;9.70;;
20695;SDS011;10507;52.754;13.040;2024-02-21T07:38:22;20.20;;;10.77;;
20695;SDS011;10507;52.754;13.040;2024-02-21T07:40:49;20.80;;;10.07;;
20695;SDS011;10507;52.754;13.040;2024-02-21T07:43:15;19.87;;;9.77;;
20695;SDS011;10507;52.754;13.040;2024-02-21T07:45:42;20.37;;;9.90;;
20695;SDS011;10507;52.754;13.040;2024-02-21T07:48:09;21.70;;;9.10;;
20695;SDS011;10507;52.754;13.040;2024-02-21T07:50:37;23.07;;;9.17;;
20695;SDS011;10507;52.754;13.040;2024-02-21T07:53:04;19.33;;;9.37;;
20695;SDS011;10507;52.754;13.040;2024-02-21T07:55:30;22.10;;;9.47;;
20695;SDS011;10507;52.754;13.040;2024-02-21T07:57:57;20.40;;;9.55;;
20695;SDS011;10507;52.754;13.040;2024-02-21T08:00:24;19.97;;;9.80;;
20695;SDS011;10507;52.754;13.040;2024-02-21T08:02:50;17.07;;;9.83;;
20695;SDS011;10507;52.754;13.040;2024-02-21T08:05:17;19.17;;;9.97;;
20695;SDS011;10507;52.754;13.040;2024-02-21T08:07:45;19.65;;;10.07;;
20695;SDS011;10507;52.754;13.040;2024-02-21T08:10:12;18.92;;;10.20;;
20695;SDS011;10507;52.754;13.040;2024-02-21T08:12:38;17.30;;;8.73;;
20695;SDS011;10507;52.754;13.040;2024-02-21T08:15:05;20.30;;;9.68;;
20695;SDS011;10507;52.754;13.040;2024-02-21T08:17:33;18.10;;;10.43;;
20695;SDS011;10507;52.754;13.040;2024-02-21T08:20:00;21.58;;;10.32;;
20695;SDS011;10507;52.754;13.040;2024-02-21T08:22:26;20.00;;;9.93;;
20695;SDS011;10507;52.754;13.040;2024-02-21T08:24:54;19.77;;;9.60;;
20695;SDS011;10507;52.754;13.040;2024-02-21T08:27:21;23.63;;;10.55;;
20695;SDS011;10507;52.754;13.040;2024-02-21T08:29:48;23.37;;;10.60;;
20695;SDS011;10507;52.754;13.040;2024-02-21T08:32:14;19.97;;;9.73;;
20695;SDS011;10507;52.754;13.040;2024-02-21T08:34:41;20.67;;;10.07;;
20695;SDS011;10507;52.754;13.040;2024-02-21T08:37:07;21.07;;;10.93;;
20695;SDS011;10507;52.754;13.040;2024-02-21T08:39:35;19.55;;;8.85;;
20695;SDS011;10507;52.754;13.040;2024-02-21T08:42:04;17.20;;;9.25;;
20695;SDS011;10507;52.754;13.040;2024-02-21T08:44:31;16.08;;;9.57;;
20695;SDS011;10507;52.754;13.040;2024-02-21T08:46:57;17.45;;;9.00;;
20695;SDS011;10507;52.754;13.040;2024-02-21T08:49:24;17.30;;;9.93;;
20695;SDS011;10507;52.754;13.040;2024-02-21T08:51:53;18.20;;;9.83;;
20695;SDS011;10507;52.754;13.040;2024-02-21T08:54:20;19.55;;;10.15;;
20695;SDS011;10507;52.754;13.040;2024-02-21T08:56:46;21.47;;;10.03;;
20695;SDS011;10507;52.754;13.040;2024-02-21T08:59:14;19.03;;;9.30;;
20695;SDS011;10507;52.754;13.040;2024-02-21T09:01:41;17.20;;;9.03;;
20695;SDS011;10507;52.754;13.040;2024-02-21T09:04:08;16.77;;;9.70;;
20695;SDS011;10507;52.754;13.040;2024-02-21T09:06:35;18.00;;;9.75;;
20695;SDS011;10507;52.754;13.040;2024-02-21T09:09:04;17.17;;;8.75;;
20695;SDS011;10507;52.754;13.040;2024-02-21T09:11:33;15.65;;;8.52;;
20695;SDS011;10507;52.754;13.040;2024-02-21T09:13:59;20.35;;;9.35;;
20695;SDS011;10507;52.754;13.040;2024-02-21T09:16:27;17.92;;;9.90;;
20695;SDS011;10507;52.754;13.040;2024-02-21T09:18:54;20.83;;;9.25;;
20695;SDS011;10507;52.754;13.040;2024-02-21T09:21:22;17.38;;;9.25;;
20695;SDS011;10507;52.754;13.040;2024-02-21T09:23:49;20.30;;;9.02;;
20695;SDS011;10507;52.754;13.040;2024-02-21T09:26:15;17.08;;;8.77;;
20695;SDS011;10507;52.754;13.040;2024-02-21T09:28:42;17.35;;;9.15;;
20695;SDS011;10507;52.754;13.040;2024-02-21T09:31:10;18.08;;;9.60;;
20695;SDS011;10507;52.754;13.040;2024-02-21T09:33:38;17.65;;;9.15;;
20695;SDS011;10507;52.754;13.040;2024-02-21T09:36:05;13.77;;;8.00;;
20695;SDS011;10507;52.754;13.040;2024-02-21T09:38:32;19.92;;;9.32;;
20695;SDS011;10507;52.754;13.040;2024-02-21T09:40:59;18.27;;;10.07;;
20695;SDS011;10507;52.754;13.040;2024-02-21T09:43:30;15.07;;;8.60;;
20695;SDS011;10507;52.754;13.040;2024-02-21T09:45:59;18.30;;;10.18;;
20695;SDS011;10507;52.754;13.040;2024-02-21T09:48:30;16.23;;;8.45;;
20695;SDS011;10507;52.754;13.040;2024-02-21T09:51:06;19.33;;;9.85;;
20695;SDS011;10507;52.754;13.040;2024-02-21T09:53:35;16.98;;;8.88;;
20695;SDS011;10507;52.754;13.040;2024-02-21T09:56:04;16.95;;;8.43;;
20695;SDS011;10507;52.754;13.040;2024-02-21T09:58:33;15.15;;;8.77;;
20695;SDS011;10507;52.754;13.040;2024-02-21T10:01:00;20.65;;;9.32;;
20695;SDS011;10507;52.754;13.040;2024-02-21T10:03:27;14.18;;;8.75;;
20695;SDS011;10507;52.754;13.040;2024-02-21T10:05:54;15.05;;;8.80;;
20695;SDS011;10507;52.754;13.040;2024-02-21T10:08:22;15.95;;;8.52;;
20695;SDS011;10507;52.754;13.040;2024-02-21T10:10:49;15.27;;;8.15;;
20695;SDS011;10507;52.754;13.040;2024-02-21T10:13:24;16.73;;;8.60;;
20695;SDS011;10507;52.754;13.040;2024-02-21T10:16:02;15.18;;;8.40;;
20695;SDS011;10507;52.754;13.040;2024-02-21T10:18:29;18.23;;;9.50;;
20695;SDS011;10507;52.754;13.040;2024-02-21T10:21:02;15.77;;;8.50;;
20695;SDS011;10507;52.754;13.040;2024-02-21T10:23:40;14.70;;;7.40;;
20695;SDS011;10507;52.754;13.040;2024-02-21T10:26:07;17.35;;;7.65;;
20695;SDS011;10507;52.754;13.040;2024-02-21T10:28:34;10.88;;;7.60;;
20695;SDS011;10507;52.754;13.040;2024-02-21T10:31:00;12.60;;;7.53;;
20695;SDS011;10507;52.754;13.040;2024-02-21T10:33:27;15.85;;;7.75;;
20695;SDS011;10507;52.754;13.040;2024-02-21T10:36:05;15.13;;;7.85;;
20695;SDS011;10507;52.754;13.040;2024-02-21T10:38:34;12.25;;;7.63;;
20695;SDS011;10507;52.754;13.040;2024-02-21T10:41:01;13.48;;;8.13;;
20695;SDS011;10507;52.754;13.040;2024-02-21T10:43:30;13.63;;;7.80;;
20695;SDS011;10507;52.754;13.040;2024-02-21T10:46:04;12.93;;;7.93;;
20695;SDS011;10507;52.754;13.040;2024-02-21T10:48:33;15.10;;;8.48;;
20695;SDS011;10507;52.754;13.040;2024-02-21T10:51:14;16.77;;;8.30;;
20695;SDS011;10507;52.754;13.040;2024-02-21T10:53:46;14.73;;;9.20;;
20695;SDS011;10507;52.754;13.040;2024-02-21T10:56:21;13.30;;;8.65;;
20695;SDS011;10507;52.754;13.040;2024-02-21T10:58:52;12.68;;;8.07;;
20695;SDS011;10507;52.754;13.040;2024-02-21T11:01:20;16.27;;;8.48;;
20695;SDS011;10507;52.754;13.040;2024-02-21T11:03:48;16.35;;;8.95;;
20695;SDS011;10507;52.754;13.040;2024-02-21T11:06:16;14.13;;;8.27;;
20695;SDS011;10507;52.754;13.040;2024-02-21T11:08:46;15.48;;;8.68;;
20695;SDS011;10507;52.754;13.040;2024-02-21T11:11:14;14.30;;;8.40;;
20695;SDS011;10507;52.754;13.040;2024-02-21T11:13:43;10.65;;;7.47;;
20695;SDS011;10507;52.754;13.040;2024-02-21T11:16:11;12.80;;;7.35;;
20695;SDS011;10507;52.754;13.040;2024-02-21T11:18:47;14.18;;;7.68;;
20695;SDS011;10507;52.754;13.040;2024-02-21T11:21:14;14.77;;;7.82;;
20695;SDS011;10507;52.754;13.040;2024-02-21T11:23:40;10.35;;;6.95;;
20695;SDS011;10507;52.754;13.040;2024-02-21T11:26:09;10.65;;;7.85;;
20695;SDS011;10507;52.754;13.040;2024-02-21T11:28:36;11.18;;;6.75;;
20695;SDS011;10507;52.754;13.040;2024-02-21T11:31:09;14.70;;;7.60;;
20695;SDS011;10507;52.754;13.040;2024-02-21T11:33:39;11.90;;;6.35;;
20695;SDS011;10507;52.754;13.040;2024-02-21T11:36:07;13.32;;;6.90;;
20695;SDS011;10507;52.754;13.040;2024-02-21T11:38:34;13.30;;;5.93;;
20695;SDS011;10507;52.754;13.040;2024-02-21T11:41:00;11.25;;;6.05;;
20695;SDS011;10507;52.754;13.040;2024-02-21T11:43:29;10.55;;;5.53;;
20695;SDS011;10507;52.754;13.040;2024-02-21T11:45:59;11.25;;;6.65;;
20695;SDS011;10507;52.754;13.040;2024-02-21T11:48:28;12.32;;;6.05;;
20695;SDS011;10507;52.754;13.040;2024-02-21T11:50:55;8.60;;;4.88;;
20695;SDS011;10507;52.754;13.040;2024-02-21T11:53:23;10.63;;;4.90;;
20695;SDS011;10507;52.754;13.040;2024-02-21T11:55:52;7.22;;;4.97;;
20695;SDS011;10507;52.754;13.040;2024-02-21T11:58:20;9.35;;;5.10;;
20695;SDS011;10507;52.754;13.040;2024-02-21T12:00:49;6.97;;;4.38;;
20695;SDS011;10507;52.754;13.040;2024-02-21T12:03:15;11.02;;;4.75;;
20695;SDS011;10507;52.754;13.040;2024-02-21T12:05:42;8.40;;;4.30;;
20695;SDS011;10507;52.754;13.040;2024-02-21T12:08:09;9.48;;;5.20;;
20695;SDS011;10507;52.754;13.040;2024-02-21T12:10:35;7.70;;;4.82;;
20695;SDS011;10507;52.754;13.040;2024-02-21T12:13:06;8.38;;;5.18;;
20695;SDS011;10507;52.754;13.040;2024-02-21T12:15:33;9.18;;;5.13;;
20695;SDS011;10507;52.754;13.040;2024-02-21T12:18:01;10.52;;;5.38;;
20695;SDS011;10507;52.754;13.040;2024-02-21T12:20:28;8.05;;;4.85;;
20695;SDS011;10507;52.754;13.040;2024-02-21T12:22:56;9.05;;;5.70;;
20695;SDS011;10507;52.754;13.040;2024-02-21T12:25:23;10.25;;;5.45;;
20695;SDS011;10507;52.754;13.040;2024-02-21T12:27:51;10.70;;;5.00;;
20695;SDS011;10507;52.754;13.040;2024-02-21T12:30:18;9.65;;;5.20;;
20695;SDS011;10507;52.754;13.040;2024-02-21T12:32:45;9.02;;;4.55;;
20695;SDS011;10507;52.754;13.040;2024-02-21T12:35:14;7.95;;;4.65;;
20695;SDS011;10507;52.754;13.040;2024-02-21T12:37:42;8.85;;;5.00;;
20695;SDS011;10507;52.754;13.040;2024-02-21T12:40:09;11.07;;;4.53;;
20695;SDS011;10507;52.754;13.040;2024-02-21T12:42:38;10.63;;;5.68;;
20695;SDS011;10507;52.754;13.040;2024-02-21T12:45:05;8.90;;;5.15;;
20695;SDS011;10507;52.754;13.040;2024-02-21T12:47:32;7.68;;;4.72;;
20695;SDS011;10507;52.754;13.040;2024-02-21T12:49:59;7.35;;;4.60;;
20695;SDS011;10507;52.754;13.040;2024-02-21T12:52:29;8.07;;;4.63;;
20695;SDS011;10507;52.754;13.040;2024-02-21T12:54:56;7.97;;;4.50;;
20695;SDS011;10507;52.754;13.040;2024-02-21T12:57:23;8.40;;;4.18;;
20695;SDS011;10507;52.754;13.040;2024-02-21T12:59:50;7.00;;;4.07;;
20695;SDS011;10507;52.754;13.040;2024-02-21T13:02:17;7.43;;;4.18;;
20695;SDS011;10507;52.754;13.040;2024-02-21T13:04:45;8.75;;;4.85;;
20695;SDS011;10507;52.754;13.040;2024-02-21T13:07:11;7.30;;;4.40;;
20695;SDS011;10507;52.754;13.040;2024-02-21T13:09:39;8.23;;;3.90;;
20695;SDS011;10507;52.754;13.040;2024-02-21T13:12:06;8.70;;;3.83;;
20695;SDS011;10507;52.754;13.040;2024-02-21T13:14:34;7.43;;;3.60;;
20695;SDS011;10507;52.754;13.040;2024-02-21T13:17:01;11.00;;;4.57;;
20695;SDS011;10507;52.754;13.040;2024-02-21T13:19:28;9.00;;;4.05;;
20695;SDS011;10507;52.754;13.040;2024-02-21T13:21:55;8.10;;;4.20;;
20695;SDS011;10507;52.754;13.040;2024-02-21T13:24:21;10.20;;;4.30;;
20695;SDS011;10507;52.754;13.040;2024-02-21T13:26:49;9.23;;;4.85;;
20695;SDS011;10507;52.754;13.040;2024-02-21T13:29:16;11.95;;;4.50;;
20695;SDS011;10507;52.754;13.040;2024-02-21T13:31:43;11.23;;;4.43;;
20695;SDS011;10507;52.754;13.040;2024-02-21T13:34:10;10.02;;;4.25;;
20695;SDS011;10507;52.754;13.040;2024-02-21T13:36:37;7.13;;;4.38;;
20695;SDS011;10507;52.754;13.040;2024-02-21T13:39:04;6.78;;;4.35;;
20695;SDS011;10507;52.754;13.040;2024-02-21T13:41:32;8.52;;;4.00;;
20695;SDS011;10507;52.754;13.040;2024-02-21T13:44:00;9.90;;;4.15;;
20695;SDS011;10507;52.754;13.040;2024-02-21T13:46:28;5.82;;;3.67;;
20695;SDS011;10507;52.754;13.040;2024-02-21T13:49:02;8.60;;;4.13;;
20695;SDS011;10507;52.754;13.040;2024-02-21T13:51:31;6.63;;;3.50;;
20695;SDS011;10507;52.754;13.040;2024-02-21T13:53:58;8.80;;;3.45;;
20695;SDS011;10507;52.754;13.040;2024-02-21T13:56:25;8.30;;;3.58;;
20695;SDS011;10507;52.754;13.040;2024-02-21T13:58:52;7.57;;;3.90;;
20695;SDS011;10507;52.754;13.040;2024-02-21T14:01:20;6.97;;;3.47;;
20695;SDS011;10507;52.754;13.040;2024-02-21T14:03:46;7.47;;;3.30;;
20695;SDS011;10507;52.754;13.040;2024-02-21T14:06:13;13.20;;;3.85;;
20695;SDS011;10507;52.754;13.040;2024-02-21T14:08:40;8.00;;;3.20;;
20695;SDS011;10507;52.754;13.040;2024-02-21T14:11:06;8.82;;;3.55;;
20695;SDS011;10507;52.754;13.040;2024-02-21T14:13:33;7.75;;;3.40;;
20695;SDS011;10507;52.754;13.040;2024-02-21T14:16:00;6.93;;;3.08;;
20695;SDS011;10507;52.754;13.040;2024-02-21T14:18:28;9.55;;;3.28;;
20695;SDS011;10507;52.754;13.040;2024-02-21T14:20:55;7.60;;;3.42;;
20695;SDS011;10507;52.754;13.040;2024-02-21T14:23:21;8.32;;;3.08;;